sensor_id;sensor_type;location;lat;lon;timestamp;temperature;humidity
33741;DHT22;20065;48.380;10.892;2023-07-28T00:01:05;17.90;99.90
33741;DHT22;20065;48.380;10.892;2023-07-28T00:03:52;18.10;99.90
33741;DHT22;20065;48.380;10.892;2023-07-28T00:06:39;18.10;99.90
33741;DHT22;20065;48.380;10.892;2023-07-28T00:09:26;18.20;99.90
33741;DHT22;20065;48.380;10.892;2023-07-28T00:12:13;18.20;99.90
33741;DHT22;20065;48.380;10.892;2023-07-28T00:15:00;18.20;99.90
33741;DHT22;20065;48.380;10.892;2023-07-28T00:17:46;18.20;99.90
33741;DHT22;20065;48.380;10.892;2023-07-28T00:20:33;18.20;99.90
33741;DHT22;20065;48.380;10.892;2023-07-28T00:23:20;18.20;99.90
33741;DHT22;20065;48.380;10.892;2023-07-28T00:26:07;18.10;99.90
33741;DHT22;20065;48.380;10.892;2023-07-28T00:32:31;18.10;99.90
33741;DHT22;20065;48.380;10.892;2023-07-28T00:35:18;18.00;99.90
33741;DHT22;20065;48.380;10.892;2023-07-28T00:38:04;18.00;99.90
33741;DHT22;20065;48.380;10.892;2023-07-28T00:40:50;18.00;99.90
33741;DHT22;20065;48.380;10.892;2023-07-28T00:43:39;18.00;99.90
33741;DHT22;20065;48.380;10.892;2023-07-28T00:46:26;18.00;99.90
33741;DHT22;20065;48.380;10.892;2023-07-28T00:49:12;17.90;99.90
33741;DHT22;20065;48.380;10.892;2023-07-28T00:51:58;17.80;99.90
33741;DHT22;20065;48.380;10.892;2023-07-28T00:54:44;17.70;99.90
33741;DHT22;20065;48.380;10.892;2023-07-28T00:57:31;17.60;99.90
33741;DHT22;20065;48.380;10.892;2023-07-28T01:00:17;17.60;99.90
33741;DHT22;20065;48.380;10.892;2023-07-28T01:03:04;17.60;99.90
33741;DHT22;20065;48.380;10.892;2023-07-28T01:09:01;17.40;99.90
33741;DHT22;20065;48.380;10.892;2023-07-28T01:11:56;17.30;99.90
33741;DHT22;20065;48.380;10.892;2023-07-28T01:14:43;17.20;99.90
33741;DHT22;20065;48.380;10.892;2023-07-28T01:17:30;17.20;99.90
33741;DHT22;20065;48.380;10.892;2023-07-28T01:20:17;17.30;99.90
33741;DHT22;20065;48.380;10.892;2023-07-28T01:23:20;17.30;99.90
33741;DHT22;20065;48.380;10.892;2023-07-28T01:26:11;17.20;99.90
33741;DHT22;20065;48.380;10.892;2023-07-28T01:28:59;17.20;99.90
33741;DHT22;20065;48.380;10.892;2023-07-28T01:31:47;17.10;99.90
33741;DHT22;20065;48.380;10.892;2023-07-28T01:34:33;17.10;99.90
33741;DHT22;20065;48.380;10.892;2023-07-28T01:37:20;17.10;99.90
33741;DHT22;20065;48.380;10.892;2023-07-28T01:40:07;17.00;99.90
33741;DHT22;20065;48.380;10.892;2023-07-28T01:42:53;16.90;99.90
33741;DHT22;20065;48.380;10.892;2023-07-28T01:45:43;16.90;99.90
33741;DHT22;20065;48.380;10.892;2023-07-28T01:48:29;16.90;99.90
33741;DHT22;20065;48.380;10.892;2023-07-28T01:51:15;16.90;99.90
33741;DHT22;20065;48.380;10.892;2023-07-28T01:54:02;16.90;99.90
33741;DHT22;20065;48.380;10.892;2023-07-28T01:56:48;17.00;99.90
33741;DHT22;20065;48.380;10.892;2023-07-28T01:59:35;17.10;99.90
33741;DHT22;20065;48.380;10.892;2023-07-28T02:02:21;17.10;99.90
33741;DHT22;20065;48.380;10.892;2023-07-28T02:05:07;17.10;99.90
33741;DHT22;20065;48.380;10.892;2023-07-28T02:07:54;17.00;99.90
33741;DHT22;20065;48.380;10.892;2023-07-28T02:10:44;17.10;99.90
33741;DHT22;20065;48.380;10.892;2023-07-28T02:13:30;17.20;99.90
33741;DHT22;20065;48.380;10.892;2023-07-28T02:16:16;17.20;99.90
33741;DHT22;20065;48.380;10.892;2023-07-28T02:19:02;17.30;99.90
33741;DHT22;20065;48.380;10.892;2023-07-28T02:21:49;17.30;99.90
33741;DHT22;20065;48.380;10.892;2023-07-28T02:24:35;17.40;99.90
33741;DHT22;20065;48.380;10.892;2023-07-28T02:27:21;17.20;99.90
33741;DHT22;20065;48.380;10.892;2023-07-28T02:30:07;17.30;99.90
33741;DHT22;20065;48.380;10.892;2023-07-28T02:32:54;17.30;99.90
33741;DHT22;20065;48.380;10.892;2023-07-28T02:35:40;17.30;99.90
33741;DHT22;20065;48.380;10.892;2023-07-28T02:38:26;17.30;99.90
33741;DHT22;20065;48.380;10.892;2023-07-28T02:41:13;17.40;99.90
33741;DHT22;20065;48.380;10.892;2023-07-28T02:43:59;17.30;99.90
33741;DHT22;20065;48.380;10.892;2023-07-28T02:46:45;17.30;99.90
33741;DHT22;20065;48.380;10.892;2023-07-28T02:49:31;17.30;99.90
33741;DHT22;20065;48.380;10.892;2023-07-28T02:52:18;17.00;99.90
33741;DHT22;20065;48.380;10.892;2023-07-28T02:55:04;16.80;99.90
33741;DHT22;20065;48.380;10.892;2023-07-28T02:57:50;16.80;99.90
33741;DHT22;20065;48.380;10.892;2023-07-28T03:00:38;16.60;99.90
33741;DHT22;20065;48.380;10.892;2023-07-28T03:03:24;16.50;99.90
33741;DHT22;20065;48.380;10.892;2023-07-28T03:06:11;16.60;99.90
33741;DHT22;20065;48.380;10.892;2023-07-28T03:08:59;16.60;99.90
33741;DHT22;20065;48.380;10.892;2023-07-28T03:12:11;16.60;99.90
33741;DHT22;20065;48.380;10.892;2023-07-28T03:14:57;16.40;99.90
33741;DHT22;20065;48.380;10.892;2023-07-28T03:17:43;16.30;99.90
33741;DHT22;20065;48.380;10.892;2023-07-28T03:20:30;16.30;99.90
33741;DHT22;20065;48.380;10.892;2023-07-28T03:23:16;16.30;99.90
33741;DHT22;20065;48.380;10.892;2023-07-28T03:26:02;16.30;99.90
33741;DHT22;20065;48.380;10.892;2023-07-28T03:28:48;16.30;99.90
33741;DHT22;20065;48.380;10.892;2023-07-28T03:31:34;16.40;99.90
33741;DHT22;20065;48.380;10.892;2023-07-28T03:34:22;16.50;99.90
33741;DHT22;20065;48.380;10.892;2023-07-28T03:37:10;16.50;99.90
33741;DHT22;20065;48.380;10.892;2023-07-28T03:39:57;16.60;99.90
33741;DHT22;20065;48.380;10.892;2023-07-28T03:42:50;16.70;99.90
33741;DHT22;20065;48.380;10.892;2023-07-28T03:45:37;16.90;99.90
33741;DHT22;20065;48.380;10.892;2023-07-28T03:48:23;16.80;99.90
33741;DHT22;20065;48.380;10.892;2023-07-28T03:51:09;16.80;99.90
33741;DHT22;20065;48.380;10.892;2023-07-28T03:53:56;16.90;99.90
33741;DHT22;20065;48.380;10.892;2023-07-28T03:56:42;17.00;99.90
33741;DHT22;20065;48.380;10.892;2023-07-28T03:59:28;17.10;99.90
33741;DHT22;20065;48.380;10.892;2023-07-28T04:02:14;16.90;99.90
33741;DHT22;20065;48.380;10.892;2023-07-28T04:05:00;17.00;99.90
33741;DHT22;20065;48.380;10.892;2023-07-28T04:07:47;16.90;99.90
33741;DHT22;20065;48.380;10.892;2023-07-28T04:10:33;16.80;99.90
33741;DHT22;20065;48.380;10.892;2023-07-28T04:13:19;16.90;99.90
33741;DHT22;20065;48.380;10.892;2023-07-28T04:16:05;16.90;99.90
33741;DHT22;20065;48.380;10.892;2023-07-28T04:18:51;16.80;99.90
33741;DHT22;20065;48.380;10.892;2023-07-28T04:21:37;16.80;99.90
33741;DHT22;20065;48.380;10.892;2023-07-28T04:24:26;16.80;99.90
33741;DHT22;20065;48.380;10.892;2023-07-28T04:27:13;17.10;99.90
33741;DHT22;20065;48.380;10.892;2023-07-28T04:29:59;17.00;99.90
33741;DHT22;20065;48.380;10.892;2023-07-28T04:32:45;17.10;99.90
33741;DHT22;20065;48.380;10.892;2023-07-28T04:35:36;17.10;99.90
33741;DHT22;20065;48.380;10.892;2023-07-28T04:38:33;17.10;99.90
33741;DHT22;20065;48.380;10.892;2023-07-28T04:41:19;16.90;99.90
33741;DHT22;20065;48.380;10.892;2023-07-28T04:44:12;17.00;99.90
33741;DHT22;20065;48.380;10.892;2023-07-28T04:47:01;17.10;99.90
33741;DHT22;20065;48.380;10.892;2023-07-28T04:49:48;17.00;99.90
33741;DHT22;20065;48.380;10.892;2023-07-28T04:52:53;16.90;99.90
33741;DHT22;20065;48.380;10.892;2023-07-28T04:56:05;16.80;99.90
33741;DHT22;20065;48.380;10.892;2023-07-28T04:58:51;16.70;99.90
33741;DHT22;20065;48.380;10.892;2023-07-28T05:01:37;16.60;99.90
33741;DHT22;20065;48.380;10.892;2023-07-28T05:04:24;16.60;99.90
33741;DHT22;20065;48.380;10.892;2023-07-28T05:07:10;16.50;99.90
33741;DHT22;20065;48.380;10.892;2023-07-28T05:09:57;16.50;99.90
33741;DHT22;20065;48.380;10.892;2023-07-28T05:12:45;16.50;99.90
33741;DHT22;20065;48.380;10.892;2023-07-28T05:15:32;16.40;99.90
33741;DHT22;20065;48.380;10.892;2023-07-28T05:18:18;16.50;99.90
33741;DHT22;20065;48.380;10.892;2023-07-28T05:21:31;16.60;99.90
33741;DHT22;20065;48.380;10.892;2023-07-28T05:24:17;16.60;99.90
33741;DHT22;20065;48.380;10.892;2023-07-28T05:27:18;16.70;99.90
33741;DHT22;20065;48.380;10.892;2023-07-28T05:30:07;16.80;99.90
33741;DHT22;20065;48.380;10.892;2023-07-28T05:32:54;16.90;99.90
33741;DHT22;20065;48.380;10.892;2023-07-28T05:36:05;17.00;99.90
33741;DHT22;20065;48.380;10.892;2023-07-28T05:38:51;17.10;99.90
33741;DHT22;20065;48.380;10.892;2023-07-28T05:41:39;17.20;99.90
33741;DHT22;20065;48.380;10.892;2023-07-28T05:44:28;17.30;99.90
33741;DHT22;20065;48.380;10.892;2023-07-28T05:47:14;17.40;99.90
33741;DHT22;20065;48.380;10.892;2023-07-28T05:50:01;17.40;99.90
33741;DHT22;20065;48.380;10.892;2023-07-28T05:52:47;17.50;99.90
33741;DHT22;20065;48.380;10.892;2023-07-28T05:55:33;17.50;99.90
33741;DHT22;20065;48.380;10.892;2023-07-28T05:58:20;17.50;99.90
33741;DHT22;20065;48.380;10.892;2023-07-28T06:01:07;17.60;99.90
33741;DHT22;20065;48.380;10.892;2023-07-28T06:04:25;17.70;99.90
33741;DHT22;20065;48.380;10.892;2023-07-28T06:07:16;17.70;99.90
33741;DHT22;20065;48.380;10.892;2023-07-28T06:10:03;17.80;99.90
33741;DHT22;20065;48.380;10.892;2023-07-28T06:12:50;17.90;99.90
33741;DHT22;20065;48.380;10.892;2023-07-28T06:15:39;18.00;99.90
33741;DHT22;20065;48.380;10.892;2023-07-28T06:18:26;18.10;99.90
33741;DHT22;20065;48.380;10.892;2023-07-28T06:21:23;18.20;99.90
33741;DHT22;20065;48.380;10.892;2023-07-28T06:24:10;18.30;99.90
33741;DHT22;20065;48.380;10.892;2023-07-28T06:26:56;18.30;99.90
33741;DHT22;20065;48.380;10.892;2023-07-28T06:29:42;18.40;99.90
33741;DHT22;20065;48.380;10.892;2023-07-28T06:32:29;18.50;99.90
33741;DHT22;20065;48.380;10.892;2023-07-28T06:35:15;18.60;99.90
33741;DHT22;20065;48.380;10.892;2023-07-28T06:38:02;18.60;99.90
33741;DHT22;20065;48.380;10.892;2023-07-28T06:40:48;18.70;99.90
33741;DHT22;20065;48.380;10.892;2023-07-28T06:43:34;18.80;99.90
33741;DHT22;20065;48.380;10.892;2023-07-28T06:46:21;18.80;99.90
33741;DHT22;20065;48.380;10.892;2023-07-28T06:49:08;18.90;99.90
33741;DHT22;20065;48.380;10.892;2023-07-28T06:51:54;18.80;99.90
33741;DHT22;20065;48.380;10.892;2023-07-28T06:54:40;18.90;99.90
33741;DHT22;20065;48.380;10.892;2023-07-28T06:57:27;19.00;99.90
33741;DHT22;20065;48.380;10.892;2023-07-28T07:00:13;19.00;99.90
33741;DHT22;20065;48.380;10.892;2023-07-28T07:03:00;19.10;99.90
33741;DHT22;20065;48.380;10.892;2023-07-28T07:05:46;19.20;99.90
33741;DHT22;20065;48.380;10.892;2023-07-28T07:08:32;19.20;99.90
33741;DHT22;20065;48.380;10.892;2023-07-28T07:11:19;19.20;99.90
33741;DHT22;20065;48.380;10.892;2023-07-28T07:14:05;19.30;99.90
33741;DHT22;20065;48.380;10.892;2023-07-28T07:16:51;19.40;99.90
33741;DHT22;20065;48.380;10.892;2023-07-28T07:19:37;19.40;99.90
33741;DHT22;20065;48.380;10.892;2023-07-28T07:22:24;19.40;99.90
33741;DHT22;20065;48.380;10.892;2023-07-28T07:25:10;19.40;99.90
33741;DHT22;20065;48.380;10.892;2023-07-28T07:27:56;19.30;99.90
33741;DHT22;20065;48.380;10.892;2023-07-28T07:30:42;19.40;99.90
33741;DHT22;20065;48.380;10.892;2023-07-28T07:33:28;19.30;99.90
33741;DHT22;20065;48.380;10.892;2023-07-28T07:36:16;19.40;99.90
33741;DHT22;20065;48.380;10.892;2023-07-28T07:39:03;19.40;99.90
33741;DHT22;20065;48.380;10.892;2023-07-28T07:41:51;19.50;99.90
33741;DHT22;20065;48.380;10.892;2023-07-28T07:44:37;19.50;99.90
33741;DHT22;20065;48.380;10.892;2023-07-28T07:47:23;19.50;99.90
33741;DHT22;20065;48.380;10.892;2023-07-28T07:50:10;19.50;99.90
33741;DHT22;20065;48.380;10.892;2023-07-28T07:52:57;19.60;99.90
33741;DHT22;20065;48.380;10.892;2023-07-28T07:55:43;19.70;99.90
33741;DHT22;20065;48.380;10.892;2023-07-28T07:58:29;19.80;99.90
33741;DHT22;20065;48.380;10.892;2023-07-28T08:01:16;19.70;99.90
33741;DHT22;20065;48.380;10.892;2023-07-28T08:04:02;19.70;99.90
33741;DHT22;20065;48.380;10.892;2023-07-28T08:06:48;19.80;99.90
33741;DHT22;20065;48.380;10.892;2023-07-28T08:09:35;19.80;99.90
33741;DHT22;20065;48.380;10.892;2023-07-28T08:12:23;19.90;99.90
33741;DHT22;20065;48.380;10.892;2023-07-28T08:15:09;19.90;99.90
33741;DHT22;20065;48.380;10.892;2023-07-28T08:17:55;20.00;99.90
33741;DHT22;20065;48.380;10.892;2023-07-28T08:20:42;20.00;99.90
33741;DHT22;20065;48.380;10.892;2023-07-28T08:23:28;20.00;99.90
33741;DHT22;20065;48.380;10.892;2023-07-28T08:26:14;20.00;99.90
33741;DHT22;20065;48.380;10.892;2023-07-28T08:29:01;20.00;99.90
33741;DHT22;20065;48.380;10.892;2023-07-28T08:31:47;20.00;99.90
33741;DHT22;20065;48.380;10.892;2023-07-28T08:34:33;20.00;99.90
33741;DHT22;20065;48.380;10.892;2023-07-28T08:37:19;20.10;99.90
33741;DHT22;20065;48.380;10.892;2023-07-28T08:40:06;20.10;99.90
33741;DHT22;20065;48.380;10.892;2023-07-28T08:42:53;20.20;99.90
33741;DHT22;20065;48.380;10.892;2023-07-28T08:45:39;20.20;99.90
33741;DHT22;20065;48.380;10.892;2023-07-28T08:48:25;20.20;99.90
33741;DHT22;20065;48.380;10.892;2023-07-28T08:51:12;20.30;99.90
33741;DHT22;20065;48.380;10.892;2023-07-28T08:53:59;20.30;99.90
33741;DHT22;20065;48.380;10.892;2023-07-28T08:56:46;20.50;99.90
33741;DHT22;20065;48.380;10.892;2023-07-28T08:59:33;20.50;99.90
33741;DHT22;20065;48.380;10.892;2023-07-28T09:02:21;20.50;99.90
33741;DHT22;20065;48.380;10.892;2023-07-28T09:05:16;20.60;99.90
33741;DHT22;20065;48.380;10.892;2023-07-28T09:08:02;20.60;99.90
33741;DHT22;20065;48.380;10.892;2023-07-28T09:10:49;20.70;99.90
33741;DHT22;20065;48.380;10.892;2023-07-28T09:13:38;20.80;99.90
33741;DHT22;20065;48.380;10.892;2023-07-28T09:16:25;20.80;99.90
33741;DHT22;20065;48.380;10.892;2023-07-28T09:19:12;20.80;99.90
33741;DHT22;20065;48.380;10.892;2023-07-28T09:22:02;20.80;99.90
33741;DHT22;20065;48.380;10.892;2023-07-28T09:24:49;20.90;99.90
33741;DHT22;20065;48.380;10.892;2023-07-28T09:27:35;20.90;99.90
33741;DHT22;20065;48.380;10.892;2023-07-28T09:30:23;20.90;99.90
33741;DHT22;20065;48.380;10.892;2023-07-28T09:33:10;20.90;99.90
33741;DHT22;20065;48.380;10.892;2023-07-28T09:35:56;21.00;99.90
33741;DHT22;20065;48.380;10.892;2023-07-28T09:38:43;21.00;99.90
33741;DHT22;20065;48.380;10.892;2023-07-28T09:41:30;21.00;99.90
33741;DHT22;20065;48.380;10.892;2023-07-28T09:44:16;21.00;99.90
33741;DHT22;20065;48.380;10.892;2023-07-28T09:47:03;21.00;99.90
33741;DHT22;20065;48.380;10.892;2023-07-28T09:49:50;21.00;99.90
33741;DHT22;20065;48.380;10.892;2023-07-28T09:52:43;21.10;99.90
33741;DHT22;20065;48.380;10.892;2023-07-28T09:55:30;21.20;99.90
33741;DHT22;20065;48.380;10.892;2023-07-28T09:58:17;21.30;99.90
33741;DHT22;20065;48.380;10.892;2023-07-28T10:01:05;21.30;99.90
33741;DHT22;20065;48.380;10.892;2023-07-28T10:03:52;21.30;99.90
33741;DHT22;20065;48.380;10.892;2023-07-28T10:06:38;21.30;99.90
33741;DHT22;20065;48.380;10.892;2023-07-28T10:09:26;21.30;99.90
33741;DHT22;20065;48.380;10.892;2023-07-28T10:12:24;21.40;99.90
33741;DHT22;20065;48.380;10.892;2023-07-28T10:15:16;21.40;99.90
33741;DHT22;20065;48.380;10.892;2023-07-28T10:18:07;21.40;99.90
33741;DHT22;20065;48.380;10.892;2023-07-28T10:20:53;21.40;99.90
33741;DHT22;20065;48.380;10.892;2023-07-28T10:23:39;21.30;99.90
33741;DHT22;20065;48.380;10.892;2023-07-28T10:26:38;21.30;99.90
33741;DHT22;20065;48.380;10.892;2023-07-28T10:29:25;21.20;99.90
33741;DHT22;20065;48.380;10.892;2023-07-28T10:32:25;21.20;99.90
33741;DHT22;20065;48.380;10.892;2023-07-28T10:37:59;21.00;99.90
33741;DHT22;20065;48.380;10.892;2023-07-28T10:41:06;21.10;99.90
33741;DHT22;20065;48.380;10.892;2023-07-28T10:43:53;21.10;99.90
33741;DHT22;20065;48.380;10.892;2023-07-28T10:46:39;21.10;99.90
33741;DHT22;20065;48.380;10.892;2023-07-28T10:49:25;21.20;99.90
33741;DHT22;20065;48.380;10.892;2023-07-28T10:52:12;21.10;99.90
33741;DHT22;20065;48.380;10.892;2023-07-28T10:57:58;21.20;99.90
33741;DHT22;20065;48.380;10.892;2023-07-28T11:00:44;21.30;99.90
33741;DHT22;20065;48.380;10.892;2023-07-28T11:03:31;21.40;99.90
33741;DHT22;20065;48.380;10.892;2023-07-28T11:06:17;21.60;99.90
33741;DHT22;20065;48.380;10.892;2023-07-28T11:09:09;21.70;99.90
33741;DHT22;20065;48.380;10.892;2023-07-28T11:11:55;21.80;99.90
33741;DHT22;20065;48.380;10.892;2023-07-28T11:14:42;21.80;99.90
33741;DHT22;20065;48.380;10.892;2023-07-28T11:17:28;21.80;99.90
33741;DHT22;20065;48.380;10.892;2023-07-28T11:20:16;21.70;99.90
33741;DHT22;20065;48.380;10.892;2023-07-28T11:23:04;21.80;99.90
33741;DHT22;20065;48.380;10.892;2023-07-28T11:25:50;21.80;99.90
33741;DHT22;20065;48.380;10.892;2023-07-28T11:28:36;21.90;99.90
33741;DHT22;20065;48.380;10.892;2023-07-28T11:31:45;21.90;99.90
33741;DHT22;20065;48.380;10.892;2023-07-28T11:34:42;22.00;99.90
33741;DHT22;20065;48.380;10.892;2023-07-28T11:37:54;22.10;99.90
33741;DHT22;20065;48.380;10.892;2023-07-28T11:41:14;22.20;99.90
33741;DHT22;20065;48.380;10.892;2023-07-28T11:44:00;22.20;99.90
33741;DHT22;20065;48.380;10.892;2023-07-28T11:46:51;22.30;99.90
33741;DHT22;20065;48.380;10.892;2023-07-28T11:49:50;22.40;99.90
33741;DHT22;20065;48.380;10.892;2023-07-28T11:52:40;22.40;99.90
33741;DHT22;20065;48.380;10.892;2023-07-28T11:55:26;22.40;99.90
33741;DHT22;20065;48.380;10.892;2023-07-28T11:58:12;22.40;99.90
33741;DHT22;20065;48.380;10.892;2023-07-28T12:00:59;22.50;99.90
33741;DHT22;20065;48.380;10.892;2023-07-28T12:03:53;22.50;99.90
33741;DHT22;20065;48.380;10.892;2023-07-28T12:09:52;22.20;99.90
33741;DHT22;20065;48.380;10.892;2023-07-28T12:12:46;22.20;99.90
33741;DHT22;20065;48.380;10.892;2023-07-28T12:15:34;22.30;99.90
33741;DHT22;20065;48.380;10.892;2023-07-28T12:18:21;22.30;99.90
33741;DHT22;20065;48.380;10.892;2023-07-28T12:21:09;22.30;99.90
33741;DHT22;20065;48.380;10.892;2023-07-28T12:23:55;22.20;99.90
33741;DHT22;20065;48.380;10.892;2023-07-28T12:26:41;22.30;99.90
33741;DHT22;20065;48.380;10.892;2023-07-28T12:29:27;22.40;99.90
33741;DHT22;20065;48.380;10.892;2023-07-28T12:32:13;22.50;99.90
33741;DHT22;20065;48.380;10.892;2023-07-28T12:35:00;22.60;99.90
33741;DHT22;20065;48.380;10.892;2023-07-28T12:37:46;22.80;99.90
33741;DHT22;20065;48.380;10.892;2023-07-28T12:40:33;22.80;99.90
33741;DHT22;20065;48.380;10.892;2023-07-28T12:43:19;22.90;99.90
33741;DHT22;20065;48.380;10.892;2023-07-28T12:46:06;22.70;99.90
33741;DHT22;20065;48.380;10.892;2023-07-28T12:48:52;22.60;99.90
33741;DHT22;20065;48.380;10.892;2023-07-28T12:51:38;22.60;99.90
33741;DHT22;20065;48.380;10.892;2023-07-28T12:54:25;22.50;99.90
33741;DHT22;20065;48.380;10.892;2023-07-28T12:57:11;22.50;99.90
33741;DHT22;20065;48.380;10.892;2023-07-28T12:59:58;22.40;99.90
33741;DHT22;20065;48.380;10.892;2023-07-28T13:02:45;22.40;99.90
33741;DHT22;20065;48.380;10.892;2023-07-28T13:05:40;22.30;99.90
33741;DHT22;20065;48.380;10.892;2023-07-28T13:08:29;22.20;99.90
33741;DHT22;20065;48.380;10.892;2023-07-28T13:11:15;22.20;99.90
33741;DHT22;20065;48.380;10.892;2023-07-28T13:14:02;22.10;99.90
33741;DHT22;20065;48.380;10.892;2023-07-28T13:16:48;22.00;99.90
33741;DHT22;20065;48.380;10.892;2023-07-28T13:19:35;21.90;99.90
33741;DHT22;20065;48.380;10.892;2023-07-28T13:22:21;21.70;99.90
33741;DHT22;20065;48.380;10.892;2023-07-28T13:25:08;21.50;99.90
33741;DHT22;20065;48.380;10.892;2023-07-28T13:27:54;21.40;99.90
33741;DHT22;20065;48.380;10.892;2023-07-28T13:30:41;21.30;99.90
33741;DHT22;20065;48.380;10.892;2023-07-28T13:33:33;21.40;99.90
33741;DHT22;20065;48.380;10.892;2023-07-28T13:36:20;21.40;99.90
33741;DHT22;20065;48.380;10.892;2023-07-28T13:39:06;21.40;99.90
33741;DHT22;20065;48.380;10.892;2023-07-28T13:41:52;21.40;99.90
33741;DHT22;20065;48.380;10.892;2023-07-28T13:44:38;21.30;99.90
33741;DHT22;20065;48.380;10.892;2023-07-28T13:47:41;21.20;99.90
33741;DHT22;20065;48.380;10.892;2023-07-28T13:50:31;21.30;99.90
33741;DHT22;20065;48.380;10.892;2023-07-28T13:53:17;21.30;99.90
33741;DHT22;20065;48.380;10.892;2023-07-28T13:56:05;21.30;99.90
33741;DHT22;20065;48.380;10.892;2023-07-28T13:58:53;21.20;99.90
33741;DHT22;20065;48.380;10.892;2023-07-28T14:01:40;20.90;99.90
33741;DHT22;20065;48.380;10.892;2023-07-28T14:04:27;21.00;99.90
33741;DHT22;20065;48.380;10.892;2023-07-28T14:07:13;21.10;99.90
33741;DHT22;20065;48.380;10.892;2023-07-28T14:09:59;21.00;99.90
33741;DHT22;20065;48.380;10.892;2023-07-28T14:12:45;21.10;99.90
33741;DHT22;20065;48.380;10.892;2023-07-28T14:15:32;21.10;99.90
33741;DHT22;20065;48.380;10.892;2023-07-28T14:18:19;21.20;99.90
33741;DHT22;20065;48.380;10.892;2023-07-28T14:21:05;21.30;99.90
33741;DHT22;20065;48.380;10.892;2023-07-28T14:23:52;21.40;99.90
33741;DHT22;20065;48.380;10.892;2023-07-28T14:26:38;21.50;99.90
33741;DHT22;20065;48.380;10.892;2023-07-28T14:29:25;21.50;99.90
33741;DHT22;20065;48.380;10.892;2023-07-28T14:32:11;21.60;99.90
33741;DHT22;20065;48.380;10.892;2023-07-28T14:35:00;21.60;99.90
33741;DHT22;20065;48.380;10.892;2023-07-28T14:37:46;21.70;99.90
33741;DHT22;20065;48.380;10.892;2023-07-28T14:40:35;21.70;99.90
33741;DHT22;20065;48.380;10.892;2023-07-28T14:43:21;21.70;99.90
33741;DHT22;20065;48.380;10.892;2023-07-28T14:46:08;21.80;99.90
33741;DHT22;20065;48.380;10.892;2023-07-28T14:48:55;21.70;99.90
33741;DHT22;20065;48.380;10.892;2023-07-28T14:51:41;21.70;99.90
33741;DHT22;20065;48.380;10.892;2023-07-28T14:54:27;21.70;99.90
33741;DHT22;20065;48.380;10.892;2023-07-28T14:57:14;21.70;99.90
33741;DHT22;20065;48.380;10.892;2023-07-28T15:00:02;21.80;99.90
33741;DHT22;20065;48.380;10.892;2023-07-28T15:02:49;21.80;99.90
33741;DHT22;20065;48.380;10.892;2023-07-28T15:05:37;21.80;99.90
33741;DHT22;20065;48.380;10.892;2023-07-28T15:08:23;21.90;99.90
33741;DHT22;20065;48.380;10.892;2023-07-28T15:11:10;21.90;99.90
33741;DHT22;20065;48.380;10.892;2023-07-28T15:13:57;21.60;99.90
33741;DHT22;20065;48.380;10.892;2023-07-28T15:16:43;21.40;99.90
33741;DHT22;20065;48.380;10.892;2023-07-28T15:19:32;21.40;99.90
33741;DHT22;20065;48.380;10.892;2023-07-28T15:22:18;21.50;99.90
33741;DHT22;20065;48.380;10.892;2023-07-28T15:25:04;21.60;99.90
33741;DHT22;20065;48.380;10.892;2023-07-28T15:27:51;21.70;99.90
33741;DHT22;20065;48.380;10.892;2023-07-28T15:30:37;21.70;99.90
33741;DHT22;20065;48.380;10.892;2023-07-28T15:33:26;21.80;99.90
33741;DHT22;20065;48.380;10.892;2023-07-28T15:36:15;21.90;99.90
33741;DHT22;20065;48.380;10.892;2023-07-28T15:39:01;21.90;99.90
33741;DHT22;20065;48.380;10.892;2023-07-28T15:41:47;21.90;99.90
33741;DHT22;20065;48.380;10.892;2023-07-28T15:44:33;21.80;99.90
33741;DHT22;20065;48.380;10.892;2023-07-28T15:47:19;21.90;99.90
33741;DHT22;20065;48.380;10.892;2023-07-28T15:50:06;21.90;99.90
33741;DHT22;20065;48.380;10.892;2023-07-28T15:52:53;21.80;99.90
33741;DHT22;20065;48.380;10.892;2023-07-28T15:55:39;21.80;99.90
33741;DHT22;20065;48.380;10.892;2023-07-28T15:58:26;21.90;99.90
33741;DHT22;20065;48.380;10.892;2023-07-28T16:01:12;21.90;99.90
33741;DHT22;20065;48.380;10.892;2023-07-28T16:03:58;22.00;99.90
33741;DHT22;20065;48.380;10.892;2023-07-28T16:06:44;22.00;99.90
33741;DHT22;20065;48.380;10.892;2023-07-28T16:09:30;22.00;99.90
33741;DHT22;20065;48.380;10.892;2023-07-28T16:12:17;22.00;99.90
33741;DHT22;20065;48.380;10.892;2023-07-28T16:15:03;22.00;99.90
33741;DHT22;20065;48.380;10.892;2023-07-28T16:17:49;21.90;99.90
33741;DHT22;20065;48.380;10.892;2023-07-28T16:24:43;21.90;99.90
33741;DHT22;20065;48.380;10.892;2023-07-28T16:27:31;21.80;99.90
33741;DHT22;20065;48.380;10.892;2023-07-28T16:30:17;21.80;99.90
33741;DHT22;20065;48.380;10.892;2023-07-28T16:33:03;21.80;99.90
33741;DHT22;20065;48.380;10.892;2023-07-28T16:35:50;21.80;99.90
33741;DHT22;20065;48.380;10.892;2023-07-28T16:38:36;21.80;99.90
33741;DHT22;20065;48.380;10.892;2023-07-28T16:41:26;21.60;99.90
33741;DHT22;20065;48.380;10.892;2023-07-28T16:44:13;21.50;99.90
33741;DHT22;20065;48.380;10.892;2023-07-28T16:46:59;21.50;99.90
33741;DHT22;20065;48.380;10.892;2023-07-28T16:49:45;21.50;99.90
33741;DHT22;20065;48.380;10.892;2023-07-28T16:52:31;21.50;99.90
33741;DHT22;20065;48.380;10.892;2023-07-28T16:55:17;21.50;99.90
33741;DHT22;20065;48.380;10.892;2023-07-28T16:58:07;21.50;99.90
33741;DHT22;20065;48.380;10.892;2023-07-28T17:00:53;21.40;99.90
33741;DHT22;20065;48.380;10.892;2023-07-28T17:03:39;21.40;99.90
33741;DHT22;20065;48.380;10.892;2023-07-28T17:06:25;21.30;99.90
33741;DHT22;20065;48.380;10.892;2023-07-28T17:09:12;21.30;99.90
33741;DHT22;20065;48.380;10.892;2023-07-28T17:11:58;21.30;99.90
33741;DHT22;20065;48.380;10.892;2023-07-28T17:14:44;21.30;99.90
33741;DHT22;20065;48.380;10.892;2023-07-28T17:17:30;21.20;99.90
33741;DHT22;20065;48.380;10.892;2023-07-28T17:20:18;21.20;99.90
33741;DHT22;20065;48.380;10.892;2023-07-28T17:23:04;21.20;99.90
33741;DHT22;20065;48.380;10.892;2023-07-28T17:25:50;20.80;99.90
33741;DHT22;20065;48.380;10.892;2023-07-28T17:28:38;20.80;99.90
33741;DHT22;20065;48.380;10.892;2023-07-28T17:31:24;20.60;99.90
33741;DHT22;20065;48.380;10.892;2023-07-28T17:34:11;20.60;99.90
33741;DHT22;20065;48.380;10.892;2023-07-28T17:36:57;20.40;99.90
33741;DHT22;20065;48.380;10.892;2023-07-28T17:39:44;20.40;99.90
33741;DHT22;20065;48.380;10.892;2023-07-28T17:42:33;20.10;99.90